This is the latest recevied weather packets stored in our database for station/object VK5GR-12. If no packets are shown the sender has not sent any weather packets the latest 10 day(s).
| Time | Temp. | Humidity | Pressure | Rain* | Wind** | Luminosity | Snow |
|---|---|---|---|---|---|---|---|
| 1778041390 | 16.11° C | 89% | 1021.6 hPa | 0 mm | - | 155 W/m² | - |
| 1778040488 | 16.11° C | 91% | 1021.8 hPa | 0 mm | - | 229 W/m² | - |
| 1778039585 | 15.56° C | 94% | 1021.9 hPa | 0 mm | - | 399 W/m² | - |
| 1778038682 | 15.56° C | 93% | 1021.9 hPa | 1.78 mm | - | 206 W/m² | - |
| 1778037779 | 15.56° C | 92% | 1022 hPa | 1.27 mm | - | 236 W/m² | - |
| 1778036876 | 16.11° C | 86% | 1022.1 hPa | 0 mm | - | 147 W/m² | - |
| 1778035973 | 16.67° C | 79% | 1022.2 hPa | 0 mm | - | 112 W/m² | - |
| 1778035068 | 16.67° C | 77% | 1022.6 hPa | 0 mm | - | 251 W/m² | - |
| 1778034166 | 16.67° C | 77% | 1022.9 hPa | 0 mm | - | 90 W/m² | - |
| 1778033263 | 17.22° C | 74% | 1023 hPa | 0 mm | - | 124 W/m² | - |
| 1778032361 | 17.22° C | 75% | 1023 hPa | 0 mm | - | 223 W/m² | - |
| 1778031457 | 16.67° C | 82% | 1023.4 hPa | 0 mm | - | 137 W/m² | - |
| 1778030554 | 16.67° C | 82% | 1023.3 hPa | 0 mm | - | 137 W/m² | - |
| 1778029651 | 18.33° C | 78% | 1023.3 hPa | 0 mm | - | 132 W/m² | - |
| 1778028748 | 16.67° C | 83% | 1023.5 hPa | 0 mm | - | 253 W/m² | - |
| 1778027843 | 15° C | 90% | 1023.5 hPa | 0 mm | - | 429 W/m² | - |
| 1778026938 | 15° C | 89% | 1023.7 hPa | 0 mm | - | 136 W/m² | - |
| 1778026034 | 15° C | 88% | 1023.5 hPa | 0 mm | - | 69 W/m² | - |
| 1778025132 | 15° C | 88% | 1023.5 hPa | 0 mm | - | 118 W/m² | - |
| 1778024228 | 14.44° C | 88% | 1023.6 hPa | 0 mm | - | 107 W/m² | - |
| 1778023327 | 14.44° C | 88% | 1023.5 hPa | 0 mm | - | 109 W/m² | - |
| 1778022426 | 14.44° C | 89% | 1023.7 hPa | 0 mm | - | 63 W/m² | - |
| 1778021521 | 13.89° C | 90% | 1023.3 hPa | 0 mm | - | 83 W/m² | - |
| 1778020618 | 13.89° C | 90% | 1023.2 hPa | 0 mm | - | 61 W/m² | - |
| 1778019717 | 13.89° C | 90% | 1023.2 hPa | 0 mm | - | 28 W/m² | - |
* Rain latest hour (hover to see other rain measurements)
** Current wind speed in m/s (hover to see current wind gust speed)